Time;durP1;ratioP1;P1;durP2;ratioP2;P2;SDS_P1;SDS_P2;PMS_P1;PMS_P2;Temp;Humidity;BMP_temperature;BMP_pressure;BME280_temperature;BME280_humidity;BME280_pressure;Samples;Min_cycle;Max_cycle;Signal;HPM_P1;HPM_P2
2021/10/08 00:02:12;;;;;;;46.80;34.28;;;15.50;99.90;;;15.69;80.44;102936.75;4844788;29;20066;-75
2021/10/08 00:04:41;;;;;;;40.95;32.38;;;15.40;99.90;;;15.71;80.14;102942.97;4845144;29;20046;-74
2021/10/08 00:07:11;;;;;;;47.72;33.80;;;15.40;99.90;;;15.65;80.00;102940.25;4844811;29;20125;-75
2021/10/08 00:09:40;;;;;;;40.45;31.23;;;15.40;99.90;;;15.62;80.12;102930.44;4843834;29;20485;-75
2021/10/08 00:12:08;;;;;;;43.25;33.17;;;15.40;99.90;;;15.68;80.01;102937.63;4844512;29;20041;-74
2021/10/08 00:14:36;;;;;;;44.13;33.42;;;15.40;99.90;;;15.50;79.66;102932.13;4844531;29;20054;-74
2021/10/08 00:17:07;;;;;;;43.67;32.70;;;15.30;99.90;;;15.23;80.10;102936.28;4844842;29;20061;-74
2021/10/08 00:19:35;;;;;;;42.88;32.70;;;15.00;99.90;;;14.99;80.89;102936.06;4844464;29;20049;-74
2021/10/08 00:22:04;;;;;;;43.83;33.28;;;14.80;99.90;;;14.88;81.67;102937.72;4844386;29;20058;-74
2021/10/08 00:24:34;;;;;;;43.40;33.40;;;14.60;99.90;;;14.72;81.98;102935.75;4844853;29;20050;-74
2021/10/08 00:27:02;;;;;;;44.05;32.85;;;14.50;99.90;;;14.53;82.66;102906.22;4844685;29;20110;-74
2021/10/08 00:29:31;;;;;;;48.33;34.63;;;14.40;99.90;;;14.70;82.48;102937.50;4844655;29;20104;-74
2021/10/08 00:31:59;;;;;;;47.75;35.92;;;14.40;99.90;;;14.61;82.67;102942.75;4844353;29;20046;-74
2021/10/08 00:34:28;;;;;;;48.63;36.00;;;14.30;99.90;;;14.61;83.20;102940.06;4843381;29;20048;-74
2021/10/08 00:36:57;;;;;;;46.47;34.92;;;14.30;99.90;;;14.62;82.94;102944.50;4843230;29;20050;-74
2021/10/08 00:39:26;;;;;;;49.00;35.83;;;14.30;99.90;;;14.44;83.64;102950.50;4844272;29;20575;-74
2021/10/08 00:41:56;;;;;;;48.15;34.05;;;14.10;99.90;;;14.52;83.24;102947.06;4843225;29;20488;-74
2021/10/08 00:44:24;;;;;;;46.30;34.90;;;14.20;99.90;;;14.44;83.78;102946.94;4844270;29;20042;-74
2021/10/08 00:46:53;;;;;;;52.67;36.55;;;14.20;99.90;;;14.37;83.66;102947.72;4842898;29;20119;-74
2021/10/08 00:49:21;;;;;;;46.33;34.80;;;14.10;99.90;;;14.30;83.83;102948.53;4844371;29;20046;-74
2021/10/08 00:51:49;;;;;;;46.85;32.58;;;14.00;99.90;;;13.95;84.10;102920.50;4844288;29;20038;-74
2021/10/08 00:54:18;;;;;;;46.92;35.08;;;13.90;99.90;;;14.07;84.98;102945.50;4844016;29;20124;-74
2021/10/08 00:56:47;;;;;;;48.35;35.25;;;13.70;99.90;;;13.94;85.16;102937.31;4844215;29;20054;-74
2021/10/08 00:59:17;;;;;;;55.97;36.92;;;13.70;99.90;;;14.15;85.01;102946.50;4843005;29;20154;-74
2021/10/08 01:01:46;;;;;;;49.83;36.97;;;13.80;99.90;;;14.15;84.78;102929.66;4844064;29;20505;-74
2021/10/08 01:04:15;;;;;;;48.80;35.42;;;13.90;99.90;;;14.11;84.89;102943.78;4842819;29;20046;-74
2021/10/08 01:06:43;;;;;;;50.97;35.90;;;13.80;99.90;;;14.04;84.83;102944.56;4844050;29;20042;-74
2021/10/08 01:09:12;;;;;;;49.75;36.38;;;13.80;99.90;;;13.93;85.42;102947.09;4844022;29;20045;-74
2021/10/08 01:11:43;;;;;;;52.55;37.35;;;13.70;99.90;;;13.77;85.87;102947.69;4842659;29;20506;-74
2021/10/08 01:14:12;;;;;;;56.13;39.42;;;13.60;99.90;;;13.67;86.39;102939.53;4842594;29;20076;-74
2021/10/08 01:16:50;;;;;;;57.00;38.10;;;13.50;99.90;;;13.65;86.31;102951.91;4842660;29;20045;-74
2021/10/08 01:19:18;;;;;;;57.80;38.97;;;13.40;99.90;;;13.60;86.43;102949.19;4842558;29;20140;-74
2021/10/08 01:21:55;;;;;;;54.30;38.35;;;13.40;99.90;;;13.68;86.59;102946.66;4842592;29;20396;-74
2021/10/08 01:24:25;;;;;;;58.30;39.00;;;13.40;99.90;;;13.67;86.38;102950.19;4843682;29;20080;-74
2021/10/08 01:26:55;;;;;;;;;;;13.50;99.90;;;13.78;85.87;102949.47;4842924;29;20416;-74
2021/10/08 01:29:25;;;;;;;59.20;39.22;;;13.60;99.90;;;13.68;86.19;102951.97;4842571;29;19930;-74
2021/10/08 01:31:54;;;;;;;55.70;39.95;;;13.50;99.90;;;13.52;86.34;102929.56;4843595;29;20046;-74
2021/10/08 01:34:23;;;;;;;55.33;39.33;;;13.40;99.90;;;13.61;86.25;102944.78;4841838;29;20081;-74
2021/10/08 01:36:57;;;;;;;59.47;40.03;;;13.40;99.90;;;13.72;86.16;102948.50;4842285;29;20050;-74
2021/10/08 01:39:26;;;;;;;53.10;38.38;;;13.40;99.90;;;13.08;86.01;102830.50;4842085;29;20057;-74
2021/10/08 01:41:55;;;;;;;53.83;39.07;;;13.50;99.90;;;13.64;86.18;102912.91;4842308;29;20058;-74
2021/10/08 01:44:26;;;;;;;59.05;39.30;;;13.50;99.90;;;13.44;85.73;102937.41;4842039;29;20049;-74
2021/10/08 01:46:54;;;;;;;81.32;39.28;;;13.40;99.90;;;13.26;85.64;102907.84;4841952;29;20065;-73
2021/10/08 01:49:29;;;;;;;58.75;39.20;;;13.30;99.90;;;13.53;86.11;102961.50;4842090;29;20081;-74
2021/10/08 01:52:04;;;;;;;99.70;39.30;;;13.30;99.90;;;13.37;85.96;102953.22;4841982;29;20060;-74
2021/10/08 01:54:38;;;;;;;169.82;38.60;;;13.20;99.90;;;13.20;86.21;102949.38;4842145;29;20516;-74
2021/10/08 01:57:06;;;;;;;60.40;37.17;;;13.10;99.90;;;13.30;86.32;102952.22;4842098;29;20062;-74
2021/10/08 01:59:35;;;;;;;188.88;39.97;;;13.00;99.90;;;13.18;86.13;102930.72;4841949;29;20045;-74
2021/10/08 02:02:07;;;;;;;87.03;36.50;;;13.10;99.90;;;13.16;86.61;102952.84;4841921;29;20138;-74
2021/10/08 02:04:36;;;;;;;154.52;37.35;;;12.90;99.90;;;12.96;86.46;102938.25;4841988;29;20066;-74
2021/10/08 02:07:06;;;;;;;65.90;35.72;;;12.90;99.90;;;13.16;86.61;102960.81;4841792;29;20046;-74
2021/10/08 02:09:35;;;;;;;111.38;36.63;;;12.90;99.90;;;13.24;86.98;102959.22;4841682;29;20505;-74
2021/10/08 02:12:04;;;;;;;109.93;36.53;;;13.00;99.90;;;12.68;87.39;102924.44;4842968;29;20122;-74
2021/10/08 02:14:34;;;;;;;49.38;36.72;;;12.70;99.90;;;13.00;87.73;102956.94;4843023;29;20602;-74
2021/10/08 02:17:03;;;;;;;61.47;36.00;;;12.70;99.90;;;12.77;87.94;102955.59;4841600;29;20417;-74
2021/10/08 02:19:32;;;;;;;100.50;38.85;;;12.60;99.90;;;12.75;88.37;102949.38;4841519;29;20484;-74
2021/10/08 02:22:03;;;;;;;69.63;38.42;;;12.60;99.90;;;12.75;88.52;102941.41;4842822;29;20128;-74
2021/10/08 02:24:37;;;;;;;111.70;41.60;;;12.50;99.90;;;12.92;88.54;102944.38;4841569;29;20054;-74
2021/10/08 02:27:06;;;;;;;71.78;40.00;;;12.70;99.90;;;12.59;88.20;102888.84;4841574;29;20504;-74
2021/10/08 02:29:36;;;;;;;193.75;41.95;;;12.80;99.90;;;12.62;88.21;102956.16;4841737;29;20050;-74
2021/10/08 02:32:07;;;;;;;88.93;41.88;;;12.50;99.90;;;12.77;89.07;102955.59;4841463;29;20053;-74
2021/10/08 02:34:36;;;;;;;60.55;41.63;;;12.50;99.90;;;13.01;89.03;102955.16;4842645;29;20052;-74
2021/10/08 02:37:05;;;;;;;62.08;42.13;;;12.70;99.90;;;13.09;89.02;102948.28;4842448;29;20504;-74
2021/10/08 02:39:34;;;;;;;57.78;39.40;;;12.90;99.90;;;12.45;88.40;102824.88;4841279;29;20106;-74
2021/10/08 02:42:05;;;;;;;56.92;39.05;;;12.90;99.90;;;13.09;88.18;102941.19;4841052;29;20046;-74
2021/10/08 02:44:36;;;;;;;67.45;41.20;;;13.00;99.90;;;13.20;87.83;102941.41;4841137;29;20057;-74
2021/10/08 02:47:05;;;;;;;98.00;39.85;;;13.10;99.90;;;13.11;87.30;102931.50;4847461;29;20050;-74
2021/10/08 02:49:35;;;;;;;139.38;37.55;;;13.00;99.90;;;12.57;87.45;102962.25;4847096;29;20056;-74
2021/10/08 02:52:06;;;;;;;126.00;38.80;;;12.50;99.90;;;12.29;88.58;102958.09;4847413;29;20110;-74
2021/10/08 02:54:35;;;;;;;117.20;37.83;;;12.10;99.90;;;12.41;88.92;102955.72;4847558;29;20307;-74
2021/10/08 02:57:06;;;;;;;82.97;35.55;;;12.20;99.90;;;12.43;89.12;102953.09;4848605;29;20045;-73
2021/10/08 02:59:34;;;;;;;174.73;39.03;;;12.20;99.90;;;12.13;88.83;102939.16;4848532;29;20050;-74
2021/10/08 03:02:04;;;;;;;87.65;37.33;;;12.10;99.90;;;12.28;89.43;102955.41;4847454;29;20069;-74
2021/10/08 03:04:33;;;;;;;83.32;36.45;;;12.10;99.90;;;12.35;89.11;102965.34;4847347;29;20390;-74
2021/10/08 03:07:02;;;;;;;75.25;37.17;;;12.10;99.90;;;12.26;89.41;102959.81;4847142;29;20049;-74
2021/10/08 03:09:31;;;;;;;64.78;37.33;;;12.00;99.90;;;12.53;89.59;102960.41;4847161;29;20042;-74
2021/10/08 03:12:01;;;;;;;61.00;36.35;;;12.20;99.90;;;12.36;89.28;102953.84;4847198;29;20102;-74
2021/10/08 03:14:32;;;;;;;;;;;12.10;99.90;;;12.59;89.28;102963.19;4847435;29;20092;-74
2021/10/08 03:17:04;;;;;;;77.40;36.42;;;12.30;99.90;;;12.65;88.78;102961.56;4848481;29;19924;-74
2021/10/08 03:19:33;;;;;;;91.68;35.83;;;12.40;99.90;;;12.19;88.81;102958.78;4848281;29;20565;-74
2021/10/08 03:22:02;;;;;;;66.93;31.83;;;12.10;99.90;;;11.74;89.79;102960.34;4847090;29;20050;-74
2021/10/08 03:24:31;;;;;;;92.07;34.72;;;11.70;99.90;;;11.65;90.25;102960.09;4846821;29;20050;-74
2021/10/08 03:27:00;;;;;;;87.32;34.90;;;11.50;99.90;;;11.52;90.58;102875.81;4847019;29;20137;-74
2021/10/08 03:29:29;;;;;;;59.83;33.83;;;11.70;99.90;;;12.12;90.68;102961.25;4848006;29;20058;-74
2021/10/08 03:31:59;;;;;;;42.25;32.90;;;11.80;99.90;;;12.01;89.97;102962.75;4848295;29;20400;-74
2021/10/08 03:34:28;;;;;;;44.03;33.38;;;11.70;99.90;;;12.25;90.26;102968.63;4846801;29;20053;-73
2021/10/08 03:36:59;;;;;;;114.97;32.83;;;11.90;99.90;;;12.32;89.78;102960.84;4846964;29;20052;-74
2021/10/08 03:39:31;;;;;;;42.97;32.17;;;12.10;99.90;;;12.26;89.46;102975.72;4846952;29;20496;-74
2021/10/08 03:41:59;;;;;;;42.22;31.75;;;12.10;99.90;;;12.39;89.02;102946.84;4848337;29;20452;-73
2021/10/08 03:44:33;;;;;;;69.43;30.45;;;12.20;99.90;;;12.11;88.74;102970.06;4847856;29;20548;-74
2021/10/08 03:47:13;;;;;;;46.70;32.35;;;11.90;99.90;;;12.37;88.78;102960.91;4846738;29;20061;-74
2021/10/08 03:49:41;;;;;;;77.35;31.20;;;12.10;99.90;;;12.39;88.27;102960.09;4848223;29;20050;-74
2021/10/08 03:52:11;;;;;;;75.00;29.23;;;12.10;99.90;;;12.03;88.15;102972.56;4847045;29;20050;-73
2021/10/08 03:54:39;;;;;;;121.95;30.42;;;11.90;99.90;;;11.93;87.94;102965.22;4846841;29;20053;-74
2021/10/08 03:57:08;;;;;;;64.60;28.00;;;11.80;99.90;;;11.38;89.68;102962.94;4845666;29;20077;-73
2021/10/08 03:59:36;;;;;;;94.00;29.85;;;11.30;99.90;;;11.18;90.92;102973.88;4844744;29;20404;-74
2021/10/08 04:02:06;;;;;;;113.40;30.23;;;11.10;99.90;;;10.84;92.03;102958.78;4843919;29;20058;-74
2021/10/08 04:04:35;;;;;;;135.30;32.13;;;10.70;99.90;;;10.66;93.53;102960.94;4843662;29;20050;-74
2021/10/08 04:07:04;;;;;;;73.78;28.88;;;10.50;99.90;;;10.81;94.21;102959.63;4843857;29;20475;-74
2021/10/08 04:09:32;;;;;;;130.30;29.52;;;10.50;99.90;;;10.52;93.72;102954.34;4843824;29;20144;-74
2021/10/08 04:12:01;;;;;;;64.13;30.10;;;10.40;99.90;;;10.76;94.54;102973.59;4844716;29;20462;-73
2021/10/08 04:14:31;;;;;;;41.00;28.20;;;10.40;99.90;;;11.11;93.70;102982.53;4843885;29;20409;-74
2021/10/08 04:17:01;;;;;;;41.45;28.48;;;10.70;99.90;;;11.03;92.52;102962.88;4843952;29;20050;-73
2021/10/08 04:19:31;;;;;;;49.92;26.27;;;10.80;99.90;;;10.87;92.27;102974.78;4843586;29;20053;-73
2021/10/08 04:22:01;;;;;;;99.97;27.30;;;10.60;99.90;;;10.81;92.59;102956.09;4843747;29;20144;-73
2021/10/08 04:24:31;;;;;;;;;;;10.60;99.90;;;10.42;93.47;102968.16;4843982;29;20053;-74
2021/10/08 04:27:01;;;;;;;156.15;27.73;;;10.30;99.90;;;9.97;95.59;102971.16;4843509;29;20413;-74
2021/10/08 04:29:31;;;;;;;118.35;28.20;;;9.90;99.90;;;10.04;96.57;102973.13;4843509;29;20058;-74
2021/10/08 04:31:59;;;;;;;124.05;26.02;;;9.80;99.90;;;10.27;96.21;102975.63;4844650;29;20457;-74
2021/10/08 04:34:28;;;;;;;177.35;30.90;;;9.90;99.90;;;10.26;96.18;102979.16;4843518;29;20046;-73
2021/10/08 04:36:58;;;;;;;37.55;28.08;;;10.00;99.90;;;10.55;95.82;102962.41;4843427;29;20069;-74
2021/10/08 04:39:27;;;;;;;45.00;27.27;;;10.40;99.90;;;10.85;95.10;102982.69;4843378;29;20050;-74
2021/10/08 04:41:55;;;;;;;38.38;28.02;;;10.60;99.90;;;11.01;94.17;102977.81;4843487;29;20050;-74
2021/10/08 04:44:25;;;;;;;85.82;27.60;;;10.70;99.90;;;10.68;92.59;102948.66;4843051;29;20049;-74
2021/10/08 04:46:53;;;;;;;65.20;26.13;;;10.70;99.90;;;10.60;92.50;102939.59;4842796;29;20129;-74
2021/10/08 04:49:22;;;;;;;74.93;26.20;;;10.60;99.90;;;10.18;93.46;102933.91;4843087;29;20053;-73
2021/10/08 04:51:51;;;;;;;74.82;25.90;;;10.30;99.90;;;10.44;94.71;102977.03;4843191;29;20484;-74
2021/10/08 04:54:23;;;;;;;35.50;27.80;;;10.20;99.90;;;10.80;95.21;102971.06;4843041;29;20046;-74
2021/10/08 04:56:51;;;;;;;34.20;27.50;;;10.50;99.90;;;11.12;94.65;102969.31;4842710;29;20053;-74
2021/10/08 04:59:21;;;;;;;62.92;28.02;;;10.80;99.90;;;11.37;93.73;102986.75;4842875;29;20136;-74
2021/10/08 05:01:49;;;;;;;40.10;25.85;;;11.00;99.90;;;11.49;92.58;102980.03;4843003;29;20050;-74
2021/10/08 05:04:18;;;;;;;40.83;27.25;;;11.20;99.90;;;11.51;91.82;102988.00;4842929;29;20050;-74
2021/10/08 05:06:47;;;;;;;37.65;25.48;;;11.20;99.90;;;11.56;90.89;102991.66;4843104;29;20061;-74
2021/10/08 05:09:16;;;;;;;36.20;24.10;;;11.30;99.90;;;11.57;90.78;102986.44;4841518;29;20053;-74
2021/10/08 05:11:46;;;;;;;32.50;26.27;;;11.30;99.90;;;11.55;90.42;102988.13;4844178;29;20057;-74
2021/10/08 05:14:14;;;;;;;126.77;26.00;;;11.20;99.90;;;11.58;89.98;102987.28;4842835;29;20065;-74
2021/10/08 05:16:46;;;;;;;39.20;25.48;;;11.30;99.90;;;11.60;89.61;102981.19;4842677;29;20303;-74
2021/10/08 05:19:15;;;;;;;53.13;25.35;;;11.50;99.90;;;11.73;89.35;102993.91;4842242;29;20066;-74
2021/10/08 05:21:50;;;;;;;49.78;24.02;;;11.50;99.90;;;11.28;89.17;102976.81;4842681;29;20478;-74
2021/10/08 05:24:19;;;;;;;33.45;23.98;;;11.20;99.90;;;11.48;89.66;102987.91;4842543;29;20094;-74
2021/10/08 05:26:49;;;;;;;61.88;24.27;;;11.20;99.90;;;11.49;89.81;102958.81;4842601;29;20042;-74
2021/10/08 05:29:18;;;;;;;72.20;25.40;;;11.30;99.90;;;11.49;89.18;102957.91;4842491;29;20054;-74
2021/10/08 05:31:47;;;;;;;29.88;25.02;;;11.40;99.90;;;11.78;88.97;102992.28;4842562;29;20106;-74
2021/10/08 05:34:16;;;;;;;32.60;23.85;;;11.50;99.90;;;11.86;88.87;102995.13;4842377;29;20095;-74
2021/10/08 05:36:48;;;;;;;33.42;24.35;;;11.60;99.90;;;11.94;88.52;102997.97;4843258;29;20041;-74
2021/10/08 05:39:20;;;;;;;79.05;23.35;;;11.60;99.90;;;11.75;87.73;102997.50;4842186;29;20057;-73
2021/10/08 05:41:50;;;;;;;97.72;24.35;;;11.60;99.90;;;10.81;89.56;102993.13;4842155;29;20053;-74
2021/10/08 05:44:18;;;;;;;43.77;21.17;;;10.80;99.90;;;10.90;90.73;102998.69;4842084;29;20560;-73
2021/10/08 05:46:48;;;;;;;99.32;23.10;;;10.60;99.90;;;10.46;91.00;102996.50;4841690;29;20453;-72
2021/10/08 05:49:16;;;;;;;78.30;20.85;;;10.30;99.90;;;10.17;92.17;102974.47;4842179;29;20054;-73
2021/10/08 05:51:45;;;;;;;82.68;23.25;;;10.10;99.90;;;10.13;92.65;102996.38;4841839;29;20049;-73
2021/10/08 05:54:13;;;;;;;50.70;22.67;;;10.00;99.90;;;10.26;93.67;102992.38;4842153;29;20058;-72
2021/10/08 05:56:42;;;;;;;44.67;23.63;;;10.00;99.90;;;10.71;93.62;102999.03;4843205;29;20064;-72
2021/10/08 05:59:12;;;;;;;109.68;24.83;;;10.30;99.90;;;10.35;92.65;102997.94;4843106;29;20049;-73
2021/10/08 06:01:42;;;;;;;102.68;23.30;;;10.20;99.90;;;9.98;93.37;102996.75;4841582;29;20049;-68
2021/10/08 06:04:10;;;;;;;87.03;22.55;;;9.90;99.90;;;9.88;94.48;102992.00;4841779;29;20106;-74
2021/10/08 06:06:42;;;;;;;136.00;23.80;;;9.70;99.90;;;9.86;94.55;103003.38;4841715;29;20050;-68
2021/10/08 06:09:11;;;;;;;134.85;24.48;;;9.70;99.90;;;9.63;95.24;103004.34;4842851;29;20531;-70
2021/10/08 06:11:40;;;;;;;103.57;24.20;;;9.40;99.90;;;9.46;95.98;102992.34;4841655;29;20080;-69
2021/10/08 06:14:09;;;;;;;139.25;26.48;;;9.30;99.90;;;9.56;96.44;103003.25;4841502;29;20110;-70
2021/10/08 06:16:39;;;;;;;133.30;26.70;;;9.40;99.90;;;9.40;96.43;102986.84;4841580;29;20374;-70
2021/10/08 06:19:08;;;;;;;191.38;28.95;;;9.30;99.90;;;9.30;96.63;103004.09;4841527;29;20053;-70
2021/10/08 06:21:37;;;;;;;120.82;26.58;;;9.20;99.90;;;9.36;97.46;103008.69;4841139;29;20072;-69
2021/10/08 06:24:06;;;;;;;155.52;28.40;;;9.20;99.90;;;9.10;97.96;102973.44;4841444;29;20081;-69
2021/10/08 06:26:35;;;;;;;129.07;29.17;;;9.10;99.90;;;9.34;98.95;103013.94;4842805;29;20050;-68
2021/10/08 06:29:03;;;;;;;113.00;28.40;;;9.10;99.90;;;9.08;99.07;103012.09;4841351;29;20085;-73
2021/10/08 06:31:34;;;;;;;106.50;28.77;;;9.00;99.90;;;9.29;99.53;103023.41;4841486;29;20057;-70
2021/10/08 06:34:04;;;;;;;155.23;30.90;;;9.10;99.90;;;9.25;99.97;103025.91;4841316;29;20050;-74
2021/10/08 06:36:33;;;;;;;50.45;28.58;;;9.00;99.90;;;9.34;100.00;103024.50;4841477;29;20061;-74
2021/10/08 06:39:02;;;;;;;52.90;28.75;;;9.10;99.90;;;9.63;99.55;103026.41;4841595;29;20058;-75
2021/10/08 06:41:30;;;;;;;117.50;30.00;;;9.40;99.90;;;9.37;98.90;102971.75;4841333;29;20136;-73
2021/10/08 06:44:08;;;;;;;77.07;27.83;;;9.50;99.90;;;9.52;98.07;102990.81;4841175;29;20058;-69
2021/10/08 06:46:39;;;;;;;52.22;25.77;;;9.60;99.90;;;9.76;98.29;103031.25;4840977;29;20403;-70
2021/10/08 06:49:10;;;;;;;116.95;28.13;;;9.60;99.90;;;9.78;97.69;103042.78;4841247;29;20050;-71
2021/10/08 06:51:39;;;;;;;;;;;9.60;99.90;;;9.81;98.32;103037.56;4841614;29;20062;-72
2021/10/08 06:54:07;;;;;;;170.93;29.80;;;9.60;99.90;;;9.52;98.18;103033.06;4842049;29;20390;-72
2021/10/08 06:56:35;;;;;;;127.93;29.10;;;9.40;99.90;;;9.46;98.86;103032.84;4842437;29;20046;-73
2021/10/08 06:59:09;;;;;;;156.77;30.83;;;9.30;99.90;;;9.52;99.44;103043.66;4840977;29;20504;-73
2021/10/08 07:01:37;;;;;;;92.03;27.25;;;9.30;99.90;;;9.49;99.90;103047.91;4840952;29;20079;-73
2021/10/08 07:04:06;;;;;;;97.10;29.92;;;9.30;99.90;;;9.60;100.00;103052.69;4842281;29;20038;-74
2021/10/08 07:06:40;;;;;;;83.13;29.15;;;9.30;99.90;;;9.46;100.00;103006.44;4840802;29;20061;-71
2021/10/08 07:09:16;;;;;;;97.75;27.55;;;9.50;99.90;;;9.80;99.76;103058.69;4841170;29;20062;-75
2021/10/08 07:11:45;;;;;;;149.90;29.15;;;9.50;99.90;;;9.52;99.44;103043.66;4841112;29;20054;-75
2021/10/08 07:14:14;;;;;;;84.75;27.77;;;9.40;99.90;;;9.51;99.86;103014.50;4840918;29;20256;-72
2021/10/08 07:16:42;;;;;;;148.30;31.48;;;9.40;99.90;;;9.53;99.91;103056.00;4841931;29;20094;-68
2021/10/08 07:19:13;;;;;;;175.18;32.35;;;9.30;99.90;;;9.39;100.00;103056.38;4841086;29;20054;-67
2021/10/08 07:21:44;;;;;;;156.40;29.60;;;9.20;99.90;;;9.39;100.00;103066.94;4841974;29;20054;-71
2021/10/08 07:24:12;;;;;;;;;;;9.20;99.90;;;9.39;100.00;103065.16;4843057;29;20046;-72
2021/10/08 07:26:41;;;;;;;104.78;29.20;;;9.20;99.90;;;9.42;100.00;103074.94;4841828;29;20306;-72
2021/10/08 07:29:09;;;;;;;201.30;33.22;;;9.20;99.90;;;9.45;100.00;103073.31;4842095;29;20050;-73
2021/10/08 07:31:38;;;;;;;161.60;30.10;;;9.20;99.90;;;9.32;100.00;103089.56;4841935;29;20077;-72
2021/10/08 07:34:06;;;;;;;168.73;33.17;;;9.20;99.90;;;9.29;100.00;103068.31;4844646;29;20038;-72
2021/10/08 07:36:36;;;;;;;104.13;30.92;;;9.10;99.90;;;9.57;100.00;103067.56;4844436;29;20088;-73
2021/10/08 07:39:06;;;;;;;47.33;30.17;;;9.30;99.90;;;9.83;100.00;103048.22;4845351;29;20050;-73
2021/10/08 07:41:34;;;;;;;72.57;31.33;;;9.60;99.90;;;10.06;100.00;103080.69;4845132;29;20107;-73
2021/10/08 07:44:03;;;;;;;89.85;30.02;;;9.80;99.90;;;9.84;100.00;103074.69;4845385;29;20500;-72
2021/10/08 07:46:32;;;;;;;135.52;29.85;;;9.70;99.90;;;9.46;100.00;103077.75;4845389;29;20057;-72
2021/10/08 07:49:00;;;;;;;81.25;28.52;;;9.40;99.90;;;9.55;100.00;103071.88;4845205;29;20124;-73
2021/10/08 07:51:30;;;;;;;41.70;28.63;;;9.30;99.90;;;9.98;100.00;103070.78;4845387;29;20049;-73
2021/10/08 07:53:58;;;;;;;51.17;29.63;;;9.60;99.90;;;10.49;100.00;103079.50;4844009;29;20046;-72
2021/10/08 07:56:28;;;;;;;43.05;30.33;;;10.10;99.90;;;10.84;100.00;103076.19;4844908;29;20110;-73
2021/10/08 07:58:56;;;;;;;58.83;29.03;;;10.50;99.90;;;10.87;99.79;103083.34;4845002;29;20450;-73
2021/10/08 08:01:25;;;;;;;65.20;28.85;;;10.60;99.90;;;10.76;98.65;103075.06;4844849;29;20132;-72
2021/10/08 08:03:53;;;;;;;81.00;28.52;;;10.60;99.90;;;10.19;98.32;103086.47;4845164;29;20056;-72
2021/10/08 08:06:22;;;;;;;109.18;29.30;;;10.20;99.90;;;10.12;100.00;103080.94;4843971;29;20170;-72
2021/10/08 08:08:50;;;;;;;54.00;27.60;;;10.00;99.90;;;10.23;100.00;103077.78;4845106;29;20045;-72
2021/10/08 08:11:19;;;;;;;41.65;29.13;;;10.00;99.90;;;10.72;100.00;103085.53;4844793;29;20489;-73
2021/10/08 08:13:48;;;;;;;170.32;33.40;;;10.30;99.90;;;10.78;99.81;103075.13;4844759;29;20049;-73
2021/10/08 08:16:17;;;;;;;103.60;29.65;;;10.60;99.90;;;10.53;99.46;103085.81;4845547;29;20045;-73
2021/10/08 08:18:45;;;;;;;78.53;29.60;;;10.30;99.90;;;10.51;100.00;103079.59;4845099;29;20057;-73
2021/10/08 08:21:15;;;;;;;47.50;30.83;;;10.30;99.90;;;11.17;100.00;103083.34;4843447;29;20050;-73
2021/10/08 08:23:48;;;;;;;49.03;31.60;;;10.70;99.90;;;11.58;99.84;103082.72;4845050;29;20046;-73
2021/10/08 08:26:16;;;;;;;50.45;32.50;;;11.20;99.90;;;11.87;98.91;103086.16;4843805;29;20146;-72
2021/10/08 08:28:45;;;;;;;49.58;31.30;;;11.60;99.90;;;12.11;97.56;103090.38;4844525;29;20066;-73
2021/10/08 08:31:15;;;;;;;77.10;31.65;;;11.80;99.90;;;12.17;96.12;103089.63;4844380;29;20066;-73
2021/10/08 08:33:44;;;;;;;81.18;30.60;;;12.00;99.90;;;12.08;94.49;103092.94;4844667;29;20053;-73
2021/10/08 08:36:12;;;;;;;49.78;29.20;;;12.00;99.90;;;11.83;93.54;103077.25;4844287;29;20073;-73
2021/10/08 08:38:41;;;;;;;42.38;29.17;;;11.80;99.90;;;12.29;94.23;103097.88;4844302;29;20636;-72
2021/10/08 08:41:09;;;;;;;45.47;30.48;;;12.00;99.90;;;12.50;93.65;103101.03;4844233;29;20053;-73
2021/10/08 08:43:58;;;;;;;41.95;29.13;;;12.20;99.90;;;12.63;92.84;103088.09;4843878;29;20050;-73
2021/10/08 08:46:28;;;;;;;41.13;27.70;;;12.50;99.90;;;12.81;92.08;103095.56;4843078;29;20115;-73
2021/10/08 08:48:56;;;;;;;63.85;29.00;;;12.60;99.90;;;12.95;90.97;103107.38;4843231;29;20420;-73
2021/10/08 08:51:25;;;;;;;44.80;27.00;;;12.80;99.90;;;11.86;91.52;103097.66;4844337;29;20137;-72
2021/10/08 08:53:57;;;;;;;71.38;31.00;;;12.00;99.90;;;11.27;93.83;103102.19;4844064;29;20125;-72
2021/10/08 08:56:25;;;;;;;45.60;28.98;;;11.40;99.90;;;11.89;94.93;103092.41;4843048;29;20086;-72
2021/10/08 08:59:00;;;;;;;59.85;29.70;;;11.60;99.90;;;11.42;93.93;103017.81;4844181;29;20064;-72
2021/10/08 09:01:31;;;;;;;48.88;32.20;;;11.60;99.90;;;12.33;94.04;103110.38;4844132;29;20053;-72
2021/10/08 09:04:02;;;;;;;46.90;31.25;;;12.00;99.90;;;12.52;93.06;103091.34;4844150;29;20046;-72
2021/10/08 09:06:38;;;;;;;52.60;33.25;;;12.30;99.90;;;12.92;92.69;103109.97;4844140;29;20049;-73
2021/10/08 09:09:17;;;;;;;50.95;31.80;;;12.60;99.90;;;13.08;91.01;103101.53;4843680;29;20098;-72
2021/10/08 09:11:47;;;;;;;64.45;33.05;;;12.80;99.90;;;12.77;89.42;103104.34;4843773;29;20053;-73
2021/10/08 09:14:21;;;;;;;53.30;31.55;;;12.70;99.90;;;12.31;91.02;103099.69;4842488;29;20165;-72
2021/10/08 09:17:16;;;;;;;75.07;34.22;;;12.30;99.90;;;11.60;94.00;103103.13;4843725;29;20046;-72
2021/10/08 09:19:54;;;;;;;66.40;37.40;;;11.60;99.90;;;11.46;96.44;103091.25;4843453;29;20065;-72
2021/10/08 09:22:26;;;;;;;83.90;38.03;;;11.30;99.90;;;11.30;97.61;103093.44;4843191;29;20046;-72
2021/10/08 09:25:11;;;;;;;84.28;40.55;;;11.20;99.90;;;11.41;98.28;103094.63;4843759;29;20457;-72
2021/10/08 09:27:42;;;;;;;68.10;41.28;;;11.10;99.90;;;11.84;99.48;103099.38;4843474;29;20046;-72
2021/10/08 09:30:12;;;;;;;68.47;40.42;;;11.40;99.90;;;11.88;98.39;103095.94;4843422;29;20050;-72
2021/10/08 09:32:45;;;;;;;75.13;44.30;;;11.60;99.90;;;12.38;99.02;103103.41;4844151;29;20058;-72
2021/10/08 09:35:17;;;;;;;69.90;41.05;;;12.00;99.90;;;12.45;97.29;103100.03;4843391;29;20041;-72
2021/10/08 09:37:54;;;;;;;74.18;42.63;;;12.20;99.90;;;12.53;97.11;103099.34;4842140;29;20053;-72
2021/10/08 09:40:31;;;;;;;69.55;40.00;;;12.30;99.90;;;12.62;96.61;103090.69;4843077;29;20073;-72
2021/10/08 09:43:04;;;;;;;78.22;43.08;;;12.40;99.90;;;12.42;96.32;103084.03;4843358;29;20054;-72
2021/10/08 09:45:39;;;;;;;73.32;43.75;;;12.30;99.90;;;12.93;96.46;103090.50;4843081;29;20046;-72
2021/10/08 09:48:10;;;;;;;71.60;42.50;;;12.60;99.90;;;12.48;94.81;103095.72;4842987;29;20192;-72
2021/10/08 09:50:57;;;;;;;72.20;42.67;;;12.40;99.90;;;12.59;96.12;103093.28;4842054;29;20148;-72
2021/10/08 09:53:26;;;;;;;73.05;43.58;;;12.20;99.90;;;12.72;94.97;103103.31;4843188;29;20057;-72
2021/10/08 09:55:54;;;;;;;75.88;44.58;;;12.60;99.90;;;12.50;95.50;103080.69;4842893;29;20058;-72
2021/10/08 09:58:23;;;;;;;72.43;44.65;;;12.40;99.90;;;12.53;95.53;103096.69;4842789;29;20050;-72
2021/10/08 10:01:04;;;;;;;76.45;44.20;;;12.40;99.90;;;12.98;95.43;103104.81;4843038;29;20129;-72
2021/10/08 10:03:34;;;;;;;71.80;45.10;;;12.60;99.90;;;13.16;94.81;103094.56;4842769;29;20094;-72
2021/10/08 10:06:05;;;;;;;79.15;47.53;;;13.00;99.90;;;13.14;95.19;103100.75;4842819;29;20046;-72
2021/10/08 10:08:33;;;;;;;82.57;49.38;;;12.90;99.90;;;13.68;95.21;103095.63;4842758;29;20101;-72
2021/10/08 10:11:02;;;;;;;78.32;46.58;;;13.40;99.90;;;13.22;93.74;103096.50;4842672;29;20457;-72
2021/10/08 10:13:32;;;;;;;78.82;48.20;;;13.10;99.90;;;14.06;94.29;103105.16;4842630;29;20050;-72
2021/10/08 10:16:01;;;;;;;;;;;13.70;99.90;;;14.42;92.44;103104.03;4842114;29;20475;-72